sensor_id;sensor_type;location;lat;lon;timestamp;P1;durP1;ratioP1;P2;durP2;ratioP2
12976;SDS011;6553;48.412;9.514;2023-07-13T00:01:57;2.15;;;1.92;;
12976;SDS011;6553;48.412;9.514;2023-07-13T00:04:24;2.33;;;2.13;;
12976;SDS011;6553;48.412;9.514;2023-07-13T00:06:51;2.20;;;2.00;;
12976;SDS011;6553;48.412;9.514;2023-07-13T00:09:17;1.98;;;1.80;;
12976;SDS011;6553;48.412;9.514;2023-07-13T00:11:44;1.70;;;1.60;;
12976;SDS011;6553;48.412;9.514;2023-07-13T00:14:14;1.73;;;1.63;;
12976;SDS011;6553;48.412;9.514;2023-07-13T00:16:40;2.28;;;1.90;;
12976;SDS011;6553;48.412;9.514;2023-07-13T00:19:10;1.95;;;1.85;;
12976;SDS011;6553;48.412;9.514;2023-07-13T00:21:38;1.70;;;1.60;;
12976;SDS011;6553;48.412;9.514;2023-07-13T00:24:05;2.03;;;1.90;;
12976;SDS011;6553;48.412;9.514;2023-07-13T00:26:33;1.77;;;1.67;;
12976;SDS011;6553;48.412;9.514;2023-07-13T00:28:59;2.00;;;1.77;;
12976;SDS011;6553;48.412;9.514;2023-07-13T00:31:25;1.80;;;1.70;;
12976;SDS011;6553;48.412;9.514;2023-07-13T00:33:50;1.83;;;1.70;;
12976;SDS011;6553;48.412;9.514;2023-07-13T00:36:16;2.80;;;1.75;;
12976;SDS011;6553;48.412;9.514;2023-07-13T00:38:45;1.80;;;1.70;;
12976;SDS011;6553;48.412;9.514;2023-07-13T00:41:11;3.05;;;1.90;;
12976;SDS011;6553;48.412;9.514;2023-07-13T00:43:37;2.08;;;1.88;;
12976;SDS011;6553;48.412;9.514;2023-07-13T00:48:52;2.65;;;1.80;;
12976;SDS011;6553;48.412;9.514;2023-07-13T00:51:23;3.15;;;1.70;;
12976;SDS011;6553;48.412;9.514;2023-07-13T00:53:57;1.67;;;1.58;;
12976;SDS011;6553;48.412;9.514;2023-07-13T00:56:28;2.35;;;2.10;;
12976;SDS011;6553;48.412;9.514;2023-07-13T00:58:59;1.83;;;1.70;;
12976;SDS011;6553;48.412;9.514;2023-07-13T01:01:27;1.60;;;1.50;;
12976;SDS011;6553;48.412;9.514;2023-07-13T01:03:54;2.10;;;1.90;;
12976;SDS011;6553;48.412;9.514;2023-07-13T01:06:19;1.80;;;1.70;;
12976;SDS011;6553;48.412;9.514;2023-07-13T01:08:45;1.83;;;1.73;;
12976;SDS011;6553;48.412;9.514;2023-07-13T01:11:11;1.95;;;1.80;;
12976;SDS011;6553;48.412;9.514;2023-07-13T01:13:45;2.15;;;1.88;;
12976;SDS011;6553;48.412;9.514;2023-07-13T01:16:30;2.10;;;1.60;;
12976;SDS011;6553;48.412;9.514;2023-07-13T01:18:59;1.70;;;1.60;;
12976;SDS011;6553;48.412;9.514;2023-07-13T01:21:29;1.90;;;1.80;;
12976;SDS011;6553;48.412;9.514;2023-07-13T01:23:58;1.70;;;1.60;;
12976;SDS011;6553;48.412;9.514;2023-07-13T01:26:24;1.83;;;1.73;;
12976;SDS011;6553;48.412;9.514;2023-07-13T01:28:51;1.80;;;1.70;;
12976;SDS011;6553;48.412;9.514;2023-07-13T01:31:16;1.85;;;1.75;;
12976;SDS011;6553;48.412;9.514;2023-07-13T01:33:42;2.42;;;1.50;;
12976;SDS011;6553;48.412;9.514;2023-07-13T01:36:09;2.30;;;1.88;;
12976;SDS011;6553;48.412;9.514;2023-07-13T01:38:37;1.70;;;1.60;;
12976;SDS011;6553;48.412;9.514;2023-07-13T01:41:03;1.60;;;1.50;;
12976;SDS011;6553;48.412;9.514;2023-07-13T01:43:28;1.60;;;1.50;;
12976;SDS011;6553;48.412;9.514;2023-07-13T01:45:55;1.90;;;1.77;;
12976;SDS011;6553;48.412;9.514;2023-07-13T01:48:21;1.65;;;1.52;;
12976;SDS011;6553;48.412;9.514;2023-07-13T01:50:47;1.73;;;1.55;;
12976;SDS011;6553;48.412;9.514;2023-07-13T01:53:14;1.70;;;1.60;;
12976;SDS011;6553;48.412;9.514;2023-07-13T01:55:39;1.73;;;1.63;;
12976;SDS011;6553;48.412;9.514;2023-07-13T01:58:07;1.63;;;1.52;;
12976;SDS011;6553;48.412;9.514;2023-07-13T02:00:33;1.77;;;1.60;;
12976;SDS011;6553;48.412;9.514;2023-07-13T02:03:01;1.90;;;1.80;;
12976;SDS011;6553;48.412;9.514;2023-07-13T02:05:27;1.70;;;1.60;;
12976;SDS011;6553;48.412;9.514;2023-07-13T02:07:53;1.95;;;1.60;;
12976;SDS011;6553;48.412;9.514;2023-07-13T02:10:18;1.55;;;1.45;;
12976;SDS011;6553;48.412;9.514;2023-07-13T02:12:44;1.60;;;1.50;;
12976;SDS011;6553;48.412;9.514;2023-07-13T02:15:10;1.60;;;1.50;;
12976;SDS011;6553;48.412;9.514;2023-07-13T02:17:37;1.50;;;1.40;;
12976;SDS011;6553;48.412;9.514;2023-07-13T02:20:03;1.40;;;1.30;;
12976;SDS011;6553;48.412;9.514;2023-07-13T02:22:30;1.58;;;1.48;;
12976;SDS011;6553;48.412;9.514;2023-07-13T02:24:56;1.90;;;1.70;;
12976;SDS011;6553;48.412;9.514;2023-07-13T02:27:22;1.50;;;1.40;;
12976;SDS011;6553;48.412;9.514;2023-07-13T02:29:49;1.50;;;1.40;;
12976;SDS011;6553;48.412;9.514;2023-07-13T02:32:16;1.70;;;1.48;;
12976;SDS011;6553;48.412;9.514;2023-07-13T02:34:43;1.83;;;1.60;;
12976;SDS011;6553;48.412;9.514;2023-07-13T02:37:09;1.60;;;1.50;;
12976;SDS011;6553;48.412;9.514;2023-07-13T02:39:35;2.05;;;1.55;;
12976;SDS011;6553;48.412;9.514;2023-07-13T02:42:02;2.08;;;1.63;;
12976;SDS011;6553;48.412;9.514;2023-07-13T02:44:29;1.30;;;1.20;;
12976;SDS011;6553;48.412;9.514;2023-07-13T02:46:55;1.52;;;1.42;;
12976;SDS011;6553;48.412;9.514;2023-07-13T02:49:20;1.90;;;1.60;;
12976;SDS011;6553;48.412;9.514;2023-07-13T02:51:46;2.33;;;1.48;;
12976;SDS011;6553;48.412;9.514;2023-07-13T02:54:12;2.13;;;1.52;;
12976;SDS011;6553;48.412;9.514;2023-07-13T02:56:40;1.42;;;1.30;;
12976;SDS011;6553;48.412;9.514;2023-07-13T02:59:06;1.50;;;1.40;;
12976;SDS011;6553;48.412;9.514;2023-07-13T03:01:32;1.60;;;1.50;;
12976;SDS011;6553;48.412;9.514;2023-07-13T03:04:00;1.30;;;1.20;;
12976;SDS011;6553;48.412;9.514;2023-07-13T03:06:28;1.42;;;1.33;;
12976;SDS011;6553;48.412;9.514;2023-07-13T03:08:56;2.13;;;1.52;;
12976;SDS011;6553;48.412;9.514;2023-07-13T03:11:22;1.58;;;1.38;;
12976;SDS011;6553;48.412;9.514;2023-07-13T03:13:55;1.33;;;1.23;;
12976;SDS011;6553;48.412;9.514;2023-07-13T03:16:23;1.50;;;1.40;;
12976;SDS011;6553;48.412;9.514;2023-07-13T03:18:51;1.75;;;1.65;;
12976;SDS011;6553;48.412;9.514;2023-07-13T03:21:16;2.08;;;1.45;;
12976;SDS011;6553;48.412;9.514;2023-07-13T03:23:42;1.40;;;1.30;;
12976;SDS011;6553;48.412;9.514;2023-07-13T03:26:10;1.40;;;1.30;;
12976;SDS011;6553;48.412;9.514;2023-07-13T03:28:40;1.40;;;1.30;;
12976;SDS011;6553;48.412;9.514;2023-07-13T03:31:19;4.15;;;1.48;;
12976;SDS011;6553;48.412;9.514;2023-07-13T03:33:48;1.52;;;1.42;;
12976;SDS011;6553;48.412;9.514;2023-07-13T03:36:19;1.63;;;1.30;;
12976;SDS011;6553;48.412;9.514;2023-07-13T03:38:57;1.60;;;1.50;;
12976;SDS011;6553;48.412;9.514;2023-07-13T03:41:33;2.28;;;1.42;;
12976;SDS011;6553;48.412;9.514;2023-07-13T03:43:59;1.50;;;1.40;;
12976;SDS011;6553;48.412;9.514;2023-07-13T03:46:26;2.42;;;1.67;;
12976;SDS011;6553;48.412;9.514;2023-07-13T03:48:52;1.50;;;1.40;;
12976;SDS011;6553;48.412;9.514;2023-07-13T03:51:18;1.30;;;1.15;;
12976;SDS011;6553;48.412;9.514;2023-07-13T03:53:45;1.45;;;1.35;;
12976;SDS011;6553;48.412;9.514;2023-07-13T03:56:14;1.38;;;1.27;;
12976;SDS011;6553;48.412;9.514;2023-07-13T03:58:44;1.23;;;1.13;;
12976;SDS011;6553;48.412;9.514;2023-07-13T04:01:16;1.55;;;1.45;;
12976;SDS011;6553;48.412;9.514;2023-07-13T04:03:45;1.48;;;1.25;;
12976;SDS011;6553;48.412;9.514;2023-07-13T04:06:16;1.30;;;1.20;;
12976;SDS011;6553;48.412;9.514;2023-07-13T04:08:47;1.50;;;1.40;;
12976;SDS011;6553;48.412;9.514;2023-07-13T04:11:19;1.95;;;1.40;;
12976;SDS011;6553;48.412;9.514;2023-07-13T04:13:48;1.30;;;1.20;;
12976;SDS011;6553;48.412;9.514;2023-07-13T04:16:16;1.40;;;1.30;;
12976;SDS011;6553;48.412;9.514;2023-07-13T04:18:44;1.35;;;1.25;;
12976;SDS011;6553;48.412;9.514;2023-07-13T04:21:12;1.98;;;1.65;;
12976;SDS011;6553;48.412;9.514;2023-07-13T04:23:39;2.45;;;1.30;;
12976;SDS011;6553;48.412;9.514;2023-07-13T04:26:05;1.20;;;1.10;;
12976;SDS011;6553;48.412;9.514;2023-07-13T04:28:32;1.33;;;1.23;;
12976;SDS011;6553;48.412;9.514;2023-07-13T04:30:59;1.38;;;1.27;;
12976;SDS011;6553;48.412;9.514;2023-07-13T04:33:25;1.45;;;1.30;;
12976;SDS011;6553;48.412;9.514;2023-07-13T04:35:53;1.30;;;1.17;;
12976;SDS011;6553;48.412;9.514;2023-07-13T04:38:25;1.50;;;1.40;;
12976;SDS011;6553;48.412;9.514;2023-07-13T04:40:59;1.40;;;1.30;;
12976;SDS011;6553;48.412;9.514;2023-07-13T04:43:29;1.30;;;1.17;;
12976;SDS011;6553;48.412;9.514;2023-07-13T04:45:56;1.30;;;1.20;;
12976;SDS011;6553;48.412;9.514;2023-07-13T04:48:27;1.45;;;1.13;;
12976;SDS011;6553;48.412;9.514;2023-07-13T04:50:56;1.48;;;1.35;;
12976;SDS011;6553;48.412;9.514;2023-07-13T04:53:24;2.13;;;1.20;;
12976;SDS011;6553;48.412;9.514;2023-07-13T04:55:51;1.40;;;1.10;;
12976;SDS011;6553;48.412;9.514;2023-07-13T04:58:17;1.30;;;1.20;;
12976;SDS011;6553;48.412;9.514;2023-07-13T05:00:43;1.52;;;1.10;;
12976;SDS011;6553;48.412;9.514;2023-07-13T05:03:09;1.33;;;1.15;;
12976;SDS011;6553;48.412;9.514;2023-07-13T05:05:35;1.75;;;1.20;;
12976;SDS011;6553;48.412;9.514;2023-07-13T05:08:01;1.55;;;1.45;;
12976;SDS011;6553;48.412;9.514;2023-07-13T05:10:27;1.30;;;1.20;;
12976;SDS011;6553;48.412;9.514;2023-07-13T05:12:53;1.52;;;1.42;;
12976;SDS011;6553;48.412;9.514;2023-07-13T05:15:21;1.00;;;1.00;;
12976;SDS011;6553;48.412;9.514;2023-07-13T05:17:48;1.60;;;1.50;;
12976;SDS011;6553;48.412;9.514;2023-07-13T05:20:15;1.42;;;1.25;;
12976;SDS011;6553;48.412;9.514;2023-07-13T05:22:43;1.73;;;1.20;;
12976;SDS011;6553;48.412;9.514;2023-07-13T05:25:09;1.48;;;1.25;;
12976;SDS011;6553;48.412;9.514;2023-07-13T05:27:35;1.83;;;1.23;;
12976;SDS011;6553;48.412;9.514;2023-07-13T05:30:02;2.75;;;1.35;;
12976;SDS011;6553;48.412;9.514;2023-07-13T05:32:29;1.10;;;1.00;;
12976;SDS011;6553;48.412;9.514;2023-07-13T05:34:55;1.55;;;1.20;;
12976;SDS011;6553;48.412;9.514;2023-07-13T05:37:21;1.88;;;1.10;;
12976;SDS011;6553;48.412;9.514;2023-07-13T05:39:47;1.10;;;1.08;;
12976;SDS011;6553;48.412;9.514;2023-07-13T05:42:12;1.77;;;1.60;;
12976;SDS011;6553;48.412;9.514;2023-07-13T05:44:39;1.52;;;1.42;;
12976;SDS011;6553;48.412;9.514;2023-07-13T05:47:04;1.25;;;1.15;;
12976;SDS011;6553;48.412;9.514;2023-07-13T05:49:30;1.33;;;1.23;;
12976;SDS011;6553;48.412;9.514;2023-07-13T05:51:56;1.65;;;1.40;;
12976;SDS011;6553;48.412;9.514;2023-07-13T05:54:22;1.30;;;1.20;;
12976;SDS011;6553;48.412;9.514;2023-07-13T05:56:48;1.40;;;1.30;;
12976;SDS011;6553;48.412;9.514;2023-07-13T05:59:14;1.30;;;1.20;;
12976;SDS011;6553;48.412;9.514;2023-07-13T06:01:40;1.30;;;1.20;;
12976;SDS011;6553;48.412;9.514;2023-07-13T06:04:06;2.67;;;1.48;;
12976;SDS011;6553;48.412;9.514;2023-07-13T06:06:32;1.10;;;1.00;;
12976;SDS011;6553;48.412;9.514;2023-07-13T06:08:58;1.80;;;1.20;;
12976;SDS011;6553;48.412;9.514;2023-07-13T06:11:25;1.30;;;1.20;;
12976;SDS011;6553;48.412;9.514;2023-07-13T06:13:52;1.85;;;1.38;;
12976;SDS011;6553;48.412;9.514;2023-07-13T06:16:19;1.33;;;1.23;;
12976;SDS011;6553;48.412;9.514;2023-07-13T06:18:45;2.20;;;1.60;;
12976;SDS011;6553;48.412;9.514;2023-07-13T06:21:21;1.27;;;1.17;;
12976;SDS011;6553;48.412;9.514;2023-07-13T06:23:48;1.55;;;1.30;;
12976;SDS011;6553;48.412;9.514;2023-07-13T06:26:17;1.65;;;1.30;;
12976;SDS011;6553;48.412;9.514;2023-07-13T06:28:45;1.48;;;1.10;;
12976;SDS011;6553;48.412;9.514;2023-07-13T06:31:12;1.77;;;1.40;;
12976;SDS011;6553;48.412;9.514;2023-07-13T06:33:39;2.08;;;1.50;;
12976;SDS011;6553;48.412;9.514;2023-07-13T06:36:05;1.50;;;1.40;;
12976;SDS011;6553;48.412;9.514;2023-07-13T06:38:33;1.10;;;1.00;;
12976;SDS011;6553;48.412;9.514;2023-07-13T06:40:59;1.20;;;1.10;;
12976;SDS011;6553;48.412;9.514;2023-07-13T06:43:25;1.17;;;1.13;;
12976;SDS011;6553;48.412;9.514;2023-07-13T06:45:51;1.60;;;1.30;;
12976;SDS011;6553;48.412;9.514;2023-07-13T06:48:20;1.45;;;1.33;;
12976;SDS011;6553;48.412;9.514;2023-07-13T06:50:48;1.38;;;1.17;;
12976;SDS011;6553;48.412;9.514;2023-07-13T06:53:15;1.73;;;1.45;;
12976;SDS011;6553;48.412;9.514;2023-07-13T06:55:43;1.90;;;1.17;;
12976;SDS011;6553;48.412;9.514;2023-07-13T06:58:14;2.20;;;1.30;;
12976;SDS011;6553;48.412;9.514;2023-07-13T07:00:42;1.55;;;1.20;;
12976;SDS011;6553;48.412;9.514;2023-07-13T07:03:07;1.20;;;1.10;;
12976;SDS011;6553;48.412;9.514;2023-07-13T07:05:33;1.88;;;1.30;;
12976;SDS011;6553;48.412;9.514;2023-07-13T07:07:59;2.80;;;1.42;;
12976;SDS011;6553;48.412;9.514;2023-07-13T07:10:25;1.00;;;1.00;;
12976;SDS011;6553;48.412;9.514;2023-07-13T07:12:51;2.35;;;1.20;;
12976;SDS011;6553;48.412;9.514;2023-07-13T07:15:17;1.63;;;1.20;;
12976;SDS011;6553;48.412;9.514;2023-07-13T07:17:44;1.35;;;1.20;;
12976;SDS011;6553;48.412;9.514;2023-07-13T07:20:10;1.35;;;1.25;;
12976;SDS011;6553;48.412;9.514;2023-07-13T07:22:36;2.58;;;1.27;;
12976;SDS011;6553;48.412;9.514;2023-07-13T07:25:02;1.80;;;1.50;;
12976;SDS011;6553;48.412;9.514;2023-07-13T07:27:28;1.40;;;1.30;;
12976;SDS011;6553;48.412;9.514;2023-07-13T07:29:53;1.67;;;1.15;;
12976;SDS011;6553;48.412;9.514;2023-07-13T07:32:19;1.38;;;1.17;;
12976;SDS011;6553;48.412;9.514;2023-07-13T07:34:46;2.80;;;1.48;;
12976;SDS011;6553;48.412;9.514;2023-07-13T07:37:13;1.50;;;1.30;;
12976;SDS011;6553;48.412;9.514;2023-07-13T07:39:40;1.30;;;1.20;;
12976;SDS011;6553;48.412;9.514;2023-07-13T07:42:07;1.40;;;1.30;;
12976;SDS011;6553;48.412;9.514;2023-07-13T07:44:33;1.50;;;1.40;;
12976;SDS011;6553;48.412;9.514;2023-07-13T07:47:00;2.00;;;1.30;;
12976;SDS011;6553;48.412;9.514;2023-07-13T07:49:26;1.20;;;1.10;;
12976;SDS011;6553;48.412;9.514;2023-07-13T07:51:52;1.33;;;1.20;;
12976;SDS011;6553;48.412;9.514;2023-07-13T07:54:18;1.40;;;1.30;;
12976;SDS011;6553;48.412;9.514;2023-07-13T07:56:44;1.20;;;1.10;;
12976;SDS011;6553;48.412;9.514;2023-07-13T07:59:09;2.10;;;1.33;;
12976;SDS011;6553;48.412;9.514;2023-07-13T08:01:35;2.08;;;1.38;;
12976;SDS011;6553;48.412;9.514;2023-07-13T08:04:02;1.92;;;1.40;;
12976;SDS011;6553;48.412;9.514;2023-07-13T08:06:28;1.40;;;1.30;;
12976;SDS011;6553;48.412;9.514;2023-07-13T08:08:54;1.17;;;1.02;;
12976;SDS011;6553;48.412;9.514;2023-07-13T08:11:20;1.70;;;1.40;;
12976;SDS011;6553;48.412;9.514;2023-07-13T08:13:47;1.45;;;1.35;;
12976;SDS011;6553;48.412;9.514;2023-07-13T08:16:13;1.55;;;1.45;;
12976;SDS011;6553;48.412;9.514;2023-07-13T08:18:39;1.63;;;1.27;;
12976;SDS011;6553;48.412;9.514;2023-07-13T08:21:05;1.38;;;1.27;;
12976;SDS011;6553;48.412;9.514;2023-07-13T08:23:32;2.13;;;1.50;;
12976;SDS011;6553;48.412;9.514;2023-07-13T08:25:58;1.30;;;1.20;;
12976;SDS011;6553;48.412;9.514;2023-07-13T08:28:26;1.63;;;1.30;;
12976;SDS011;6553;48.412;9.514;2023-07-13T08:30:53;1.20;;;1.10;;
12976;SDS011;6553;48.412;9.514;2023-07-13T08:33:19;1.77;;;1.63;;
12976;SDS011;6553;48.412;9.514;2023-07-13T08:35:49;1.40;;;1.30;;
12976;SDS011;6553;48.412;9.514;2023-07-13T08:38:15;1.67;;;1.52;;
12976;SDS011;6553;48.412;9.514;2023-07-13T08:40:43;1.20;;;1.20;;
12976;SDS011;6553;48.412;9.514;2023-07-13T08:43:18;1.90;;;1.35;;
12976;SDS011;6553;48.412;9.514;2023-07-13T08:45:51;1.30;;;1.20;;
12976;SDS011;6553;48.412;9.514;2023-07-13T08:48:26;1.30;;;1.20;;
12976;SDS011;6553;48.412;9.514;2023-07-13T08:50:58;1.85;;;1.48;;
12976;SDS011;6553;48.412;9.514;2023-07-13T08:53:57;1.92;;;1.33;;
12976;SDS011;6553;48.412;9.514;2023-07-13T08:56:30;1.80;;;1.20;;
12976;SDS011;6553;48.412;9.514;2023-07-13T08:58:58;1.13;;;1.10;;
12976;SDS011;6553;48.412;9.514;2023-07-13T09:02:00;1.50;;;1.33;;
12976;SDS011;6553;48.412;9.514;2023-07-13T09:04:53;2.13;;;1.15;;
12976;SDS011;6553;48.412;9.514;2023-07-13T09:07:40;1.42;;;1.33;;
12976;SDS011;6553;48.412;9.514;2023-07-13T09:15:41;1.98;;;1.30;;
12976;SDS011;6553;48.412;9.514;2023-07-13T09:20:51;2.05;;;1.38;;
12976;SDS011;6553;48.412;9.514;2023-07-13T09:23:24;2.30;;;1.25;;
12976;SDS011;6553;48.412;9.514;2023-07-13T09:25:58;1.60;;;1.50;;
12976;SDS011;6553;48.412;9.514;2023-07-13T09:28:59;1.20;;;1.10;;
12976;SDS011;6553;48.412;9.514;2023-07-13T09:31:52;1.35;;;1.25;;
12976;SDS011;6553;48.412;9.514;2023-07-13T09:34:23;1.38;;;1.27;;
12976;SDS011;6553;48.412;9.514;2023-07-13T09:36:51;1.75;;;1.38;;
12976;SDS011;6553;48.412;9.514;2023-07-13T09:39:38;1.55;;;1.30;;
12976;SDS011;6553;48.412;9.514;2023-07-13T09:42:20;1.38;;;1.27;;
12976;SDS011;6553;48.412;9.514;2023-07-13T09:44:55;2.72;;;1.40;;
12976;SDS011;6553;48.412;9.514;2023-07-13T09:47:25;1.90;;;1.30;;
12976;SDS011;6553;48.412;9.514;2023-07-13T09:49:59;1.17;;;1.10;;
12976;SDS011;6553;48.412;9.514;2023-07-13T09:52:42;1.58;;;1.48;;
12976;SDS011;6553;48.412;9.514;2023-07-13T09:57:49;1.20;;;1.10;;
12976;SDS011;6553;48.412;9.514;2023-07-13T10:00:24;1.98;;;1.33;;
12976;SDS011;6553;48.412;9.514;2023-07-13T10:03:02;2.72;;;1.48;;
12976;SDS011;6553;48.412;9.514;2023-07-13T10:05:48;1.40;;;1.30;;
12976;SDS011;6553;48.412;9.514;2023-07-13T10:08:21;1.40;;;1.30;;
12976;SDS011;6553;48.412;9.514;2023-07-13T10:11:00;1.48;;;1.38;;
12976;SDS011;6553;48.412;9.514;2023-07-13T10:13:43;1.50;;;1.40;;
12976;SDS011;6553;48.412;9.514;2023-07-13T10:16:25;1.33;;;1.23;;
12976;SDS011;6553;48.412;9.514;2023-07-13T10:18:58;1.42;;;1.20;;
12976;SDS011;6553;48.412;9.514;2023-07-13T10:21:38;2.25;;;1.10;;
12976;SDS011;6553;48.412;9.514;2023-07-13T10:24:20;1.55;;;1.23;;
12976;SDS011;6553;48.412;9.514;2023-07-13T10:29:48;1.55;;;1.13;;
12976;SDS011;6553;48.412;9.514;2023-07-13T10:32:23;1.35;;;1.25;;
12976;SDS011;6553;48.412;9.514;2023-07-13T10:34:50;1.83;;;1.20;;
12976;SDS011;6553;48.412;9.514;2023-07-13T10:38:01;1.50;;;1.20;;
12976;SDS011;6553;48.412;9.514;2023-07-13T10:40:16;2.30;;;1.20;;
12976;SDS011;6553;48.412;9.514;2023-07-13T10:42:55;1.92;;;1.20;;
12976;SDS011;6553;48.412;9.514;2023-07-13T10:45:26;1.67;;;1.45;;
12976;SDS011;6553;48.412;9.514;2023-07-13T10:47:58;1.27;;;1.23;;
12976;SDS011;6553;48.412;9.514;2023-07-13T10:50:26;1.10;;;1.02;;
12976;SDS011;6553;48.412;9.514;2023-07-13T10:53:00;4.55;;;1.45;;
12976;SDS011;6553;48.412;9.514;2023-07-13T10:58:28;2.38;;;1.13;;
12976;SDS011;6553;48.412;9.514;2023-07-13T11:01:10;1.08;;;1.05;;
12976;SDS011;6553;48.412;9.514;2023-07-13T11:18:52;1.83;;;1.20;;
12976;SDS011;6553;48.412;9.514;2023-07-13T11:21:29;1.10;;;1.10;;
12976;SDS011;6553;48.412;9.514;2023-07-13T11:24:02;3.45;;;1.20;;
12976;SDS011;6553;48.412;9.514;2023-07-13T11:31:57;1.50;;;1.40;;
12976;SDS011;6553;48.412;9.514;2023-07-13T11:37:10;1.40;;;1.30;;
12976;SDS011;6553;48.412;9.514;2023-07-13T11:39:43;1.35;;;1.25;;
12976;SDS011;6553;48.412;9.514;2023-07-13T11:42:13;1.40;;;1.30;;
12976;SDS011;6553;48.412;9.514;2023-07-13T11:44:42;1.60;;;1.27;;
12976;SDS011;6553;48.412;9.514;2023-07-13T11:47:22;2.80;;;1.60;;
12976;SDS011;6553;48.412;9.514;2023-07-13T11:49:50;1.77;;;1.20;;
12976;SDS011;6553;48.412;9.514;2023-07-13T11:52:22;1.38;;;1.20;;
12976;SDS011;6553;48.412;9.514;2023-07-13T11:54:57;2.03;;;1.27;;
12976;SDS011;6553;48.412;9.514;2023-07-13T11:57:28;1.25;;;1.08;;
12976;SDS011;6553;48.412;9.514;2023-07-13T11:59:59;1.15;;;1.05;;
12976;SDS011;6553;48.412;9.514;2023-07-13T12:02:36;1.20;;;1.10;;
12976;SDS011;6553;48.412;9.514;2023-07-13T12:05:10;1.65;;;1.25;;
12976;SDS011;6553;48.412;9.514;2023-07-13T12:07:40;1.17;;;1.08;;
12976;SDS011;6553;48.412;9.514;2023-07-13T12:13:01;1.38;;;1.20;;
12976;SDS011;6553;48.412;9.514;2023-07-13T12:15:36;1.63;;;1.17;;
12976;SDS011;6553;48.412;9.514;2023-07-13T12:18:03;1.67;;;1.20;;
12976;SDS011;6553;48.412;9.514;2023-07-13T12:20:38;1.25;;;1.10;;
12976;SDS011;6553;48.412;9.514;2023-07-13T12:23:21;1.63;;;1.10;;
12976;SDS011;6553;48.412;9.514;2023-07-13T12:25:53;1.42;;;1.30;;
12976;SDS011;6553;48.412;9.514;2023-07-13T12:28:39;1.67;;;1.13;;
12976;SDS011;6553;48.412;9.514;2023-07-13T12:31:25;1.40;;;1.05;;
12976;SDS011;6553;48.412;9.514;2023-07-13T12:34:10;1.38;;;1.20;;
12976;SDS011;6553;48.412;9.514;2023-07-13T12:36:55;2.03;;;1.15;;
12976;SDS011;6553;48.412;9.514;2023-07-13T12:39:36;1.73;;;1.48;;
12976;SDS011;6553;48.412;9.514;2023-07-13T12:42:28;0.98;;;0.98;;
12976;SDS011;6553;48.412;9.514;2023-07-13T12:44:58;1.27;;;1.20;;
12976;SDS011;6553;48.412;9.514;2023-07-13T12:47:52;1.55;;;1.30;;
12976;SDS011;6553;48.412;9.514;2023-07-13T12:50:36;2.53;;;1.25;;
12976;SDS011;6553;48.412;9.514;2023-07-13T12:53:19;1.75;;;1.10;;
12976;SDS011;6553;48.412;9.514;2023-07-13T12:55:50;1.48;;;1.20;;
12976;SDS011;6553;48.412;9.514;2023-07-13T12:58:39;1.65;;;1.20;;
12976;SDS011;6553;48.412;9.514;2023-07-13T13:01:08;1.35;;;1.27;;
12976;SDS011;6553;48.412;9.514;2023-07-13T13:03:48;2.58;;;1.23;;
12976;SDS011;6553;48.412;9.514;2023-07-13T13:06:23;2.78;;;1.45;;
12976;SDS011;6553;48.412;9.514;2023-07-13T13:08:58;1.45;;;1.20;;
12976;SDS011;6553;48.412;9.514;2023-07-13T13:11:26;1.30;;;1.20;;
12976;SDS011;6553;48.412;9.514;2023-07-13T13:13:55;1.73;;;1.17;;
12976;SDS011;6553;48.412;9.514;2023-07-13T13:18:57;1.25;;;1.13;;
12976;SDS011;6553;48.412;9.514;2023-07-13T13:21:35;1.40;;;1.30;;
12976;SDS011;6553;48.412;9.514;2023-07-13T13:24:01;1.40;;;1.10;;
12976;SDS011;6553;48.412;9.514;2023-07-13T13:26:26;2.17;;;1.73;;
12976;SDS011;6553;48.412;9.514;2023-07-13T13:28:52;2.40;;;1.48;;
12976;SDS011;6553;48.412;9.514;2023-07-13T13:31:18;1.25;;;1.15;;
12976;SDS011;6553;48.412;9.514;2023-07-13T13:33:45;1.10;;;1.10;;
12976;SDS011;6553;48.412;9.514;2023-07-13T13:36:17;1.30;;;1.20;;
12976;SDS011;6553;48.412;9.514;2023-07-13T13:38:47;1.95;;;1.30;;
12976;SDS011;6553;48.412;9.514;2023-07-13T13:41:14;1.20;;;1.10;;
12976;SDS011;6553;48.412;9.514;2023-07-13T13:43:41;1.48;;;1.38;;
12976;SDS011;6553;48.412;9.514;2023-07-13T13:46:16;1.40;;;1.30;;
12976;SDS011;6553;48.412;9.514;2023-07-13T13:48:46;1.40;;;1.25;;
12976;SDS011;6553;48.412;9.514;2023-07-13T13:51:16;1.30;;;1.20;;
12976;SDS011;6553;48.412;9.514;2023-07-13T13:53:46;3.42;;;1.30;;
12976;SDS011;6553;48.412;9.514;2023-07-13T13:56:13;2.35;;;1.35;;
12976;SDS011;6553;48.412;9.514;2023-07-13T13:58:40;1.48;;;1.33;;
12976;SDS011;6553;48.412;9.514;2023-07-13T14:01:13;1.23;;;1.13;;
12976;SDS011;6553;48.412;9.514;2023-07-13T14:03:48;2.05;;;1.10;;
12976;SDS011;6553;48.412;9.514;2023-07-13T14:06:16;1.25;;;1.10;;
12976;SDS011;6553;48.412;9.514;2023-07-13T14:08:45;1.73;;;1.10;;
12976;SDS011;6553;48.412;9.514;2023-07-13T14:11:12;1.27;;;1.17;;
12976;SDS011;6553;48.412;9.514;2023-07-13T14:13:42;1.17;;;1.17;;
12976;SDS011;6553;48.412;9.514;2023-07-13T14:16:22;1.33;;;1.20;;
12976;SDS011;6553;48.412;9.514;2023-07-13T14:18:53;1.35;;;1.17;;
12976;SDS011;6553;48.412;9.514;2023-07-13T14:21:21;1.33;;;1.20;;
12976;SDS011;6553;48.412;9.514;2023-07-13T14:23:48;1.70;;;1.48;;
12976;SDS011;6553;48.412;9.514;2023-07-13T14:26:16;1.20;;;1.10;;
12976;SDS011;6553;48.412;9.514;2023-07-13T14:28:52;2.25;;;1.20;;
12976;SDS011;6553;48.412;9.514;2023-07-13T14:31:20;1.30;;;1.10;;
12976;SDS011;6553;48.412;9.514;2023-07-13T14:33:48;1.42;;;1.33;;
12976;SDS011;6553;48.412;9.514;2023-07-13T14:38:52;2.15;;;1.27;;
12976;SDS011;6553;48.412;9.514;2023-07-13T14:41:18;1.30;;;1.20;;
12976;SDS011;6553;48.412;9.514;2023-07-13T14:43:45;1.10;;;1.00;;
12976;SDS011;6553;48.412;9.514;2023-07-13T14:46:33;1.60;;;1.30;;
12976;SDS011;6553;48.412;9.514;2023-07-13T14:49:01;1.48;;;1.27;;
12976;SDS011;6553;48.412;9.514;2023-07-13T14:51:32;1.10;;;1.00;;
12976;SDS011;6553;48.412;9.514;2023-07-13T14:54:03;1.60;;;1.20;;
12976;SDS011;6553;48.412;9.514;2023-07-13T14:56:31;1.40;;;1.30;;
12976;SDS011;6553;48.412;9.514;2023-07-13T14:58:57;1.00;;;1.00;;
12976;SDS011;6553;48.412;9.514;2023-07-13T15:01:23;2.25;;;1.40;;
12976;SDS011;6553;48.412;9.514;2023-07-13T15:03:49;1.30;;;1.10;;
12976;SDS011;6553;48.412;9.514;2023-07-13T15:06:17;1.30;;;1.20;;
12976;SDS011;6553;48.412;9.514;2023-07-13T15:08:44;1.73;;;1.20;;
12976;SDS011;6553;48.412;9.514;2023-07-13T15:11:11;2.42;;;1.40;;
12976;SDS011;6553;48.412;9.514;2023-07-13T15:13:38;1.98;;;1.10;;
12976;SDS011;6553;48.412;9.514;2023-07-13T15:16:38;1.27;;;1.17;;
12976;SDS011;6553;48.412;9.514;2023-07-13T15:18:57;1.00;;;0.90;;
12976;SDS011;6553;48.412;9.514;2023-07-13T15:21:24;1.30;;;1.20;;
12976;SDS011;6553;48.412;9.514;2023-07-13T15:23:50;2.35;;;1.40;;
12976;SDS011;6553;48.412;9.514;2023-07-13T15:26:17;1.52;;;1.40;;
12976;SDS011;6553;48.412;9.514;2023-07-13T15:28:44;1.52;;;1.13;;
12976;SDS011;6553;48.412;9.514;2023-07-13T15:31:19;1.15;;;1.05;;
12976;SDS011;6553;48.412;9.514;2023-07-13T15:33:55;1.10;;;1.00;;
12976;SDS011;6553;48.412;9.514;2023-07-13T15:36:24;1.50;;;1.27;;
12976;SDS011;6553;48.412;9.514;2023-07-13T15:38:52;2.08;;;1.17;;
12976;SDS011;6553;48.412;9.514;2023-07-13T15:41:21;1.35;;;1.23;;
12976;SDS011;6553;48.412;9.514;2023-07-13T15:43:53;1.42;;;1.27;;
12976;SDS011;6553;48.412;9.514;2023-07-13T15:46:26;1.95;;;1.17;;
12976;SDS011;6553;48.412;9.514;2023-07-13T15:48:53;1.23;;;1.13;;
12976;SDS011;6553;48.412;9.514;2023-07-13T15:51:29;1.25;;;1.10;;
12976;SDS011;6553;48.412;9.514;2023-07-13T15:54:02;1.38;;;1.10;;
12976;SDS011;6553;48.412;9.514;2023-07-13T15:56:34;1.67;;;1.27;;
12976;SDS011;6553;48.412;9.514;2023-07-13T15:59:03;1.45;;;1.05;;
12976;SDS011;6553;48.412;9.514;2023-07-13T16:01:29;1.50;;;1.40;;
12976;SDS011;6553;48.412;9.514;2023-07-13T16:03:57;1.85;;;1.25;;
12976;SDS011;6553;48.412;9.514;2023-07-13T16:06:24;1.67;;;1.25;;
12976;SDS011;6553;48.412;9.514;2023-07-13T16:08:56;2.97;;;1.15;;